Time;durP1;ratioP1;P1;durP2;ratioP2;P2;SDS_P1;SDS_P2;PMS_P1;PMS_P2;Temp;Humidity;BMP_temperature;BMP_pressure;BME280_temperature;BME280_humidity;BME280_pressure;Samples;Min_cycle;Max_cycle;Signal;HPM_P1;HPM_P2
2023/09/29 00:01:26;;;;;;;5.53;4.20;;;15.40;68.60;;;;;;5051036;28;20485;-74
2023/09/29 00:03:51;;;;;;;7.13;4.90;;;15.40;68.70;;;;;;5051289;28;20032;-74
2023/09/29 00:06:18;;;;;;;7.50;4.20;;;15.40;69.70;;;;;;5051126;28;20239;-78
2023/09/29 00:08:45;;;;;;;7.32;4.68;;;15.40;68.60;;;;;;5051020;28;20021;-75
2023/09/29 00:11:13;;;;;;;6.78;4.18;;;15.40;68.50;;;;;;5034730;28;20025;-76
2023/09/29 00:13:39;;;;;;;7.63;4.43;;;15.30;69.60;;;;;;5053275;28;20118;-75
2023/09/29 00:16:04;;;;;;;7.60;4.65;;;15.30;68.80;;;;;;5037393;28;20072;-76
2023/09/29 00:18:30;;;;;;;7.80;4.30;;;15.30;69.00;;;;;;5054658;28;20525;-76
2023/09/29 00:20:56;;;;;;;8.23;4.32;;;15.30;69.10;;;;;;5054217;28;20028;-76
2023/09/29 00:23:21;;;;;;;5.03;3.72;;;15.30;69.10;;;;;;5054325;28;20025;-77
2023/09/29 00:25:47;;;;;;;5.80;4.57;;;15.20;69.20;;;;;;5054521;28;20055;-75
2023/09/29 00:28:13;;;;;;;9.43;4.50;;;15.20;69.40;;;;;;5054462;28;20075;-75
2023/09/29 00:30:39;;;;;;;7.03;4.88;;;15.30;69.40;;;;;;5037945;28;20071;-75
2023/09/29 00:33:05;;;;;;;7.57;4.53;;;15.30;69.20;;;;;;5037458;28;20033;-76
2023/09/29 00:35:33;;;;;;;7.90;4.47;;;15.20;69.10;;;;;;5037498;28;20131;-75
2023/09/29 00:38:00;;;;;;;7.00;4.40;;;15.20;69.20;;;;;;5054264;28;20021;-75
2023/09/29 00:40:27;;;;;;;9.15;4.28;;;15.20;69.20;;;;;;5054201;28;20029;-75
2023/09/29 00:42:53;;;;;;;6.13;4.43;;;15.20;69.30;;;;;;5053882;28;20097;-75
2023/09/29 00:45:23;;;;;;;6.47;4.57;;;15.20;69.30;;;;;;5053803;28;20334;-77
2023/09/29 00:47:50;;;;;;;9.23;4.57;;;15.20;69.50;;;;;;5053898;28;20379;-76
2023/09/29 00:50:20;;;;;;;7.55;4.15;;;15.20;70.40;;;;;;5053642;28;20033;-76
2023/09/29 00:52:49;;;;;;;5.13;4.22;;;15.10;69.80;;;;;;5053917;28;20036;-74
2023/09/29 00:55:17;;;;;;;6.65;4.78;;;15.20;69.70;;;;;;5053850;28;20063;-73
2023/09/29 00:57:49;;;;;;;7.22;4.53;;;15.10;69.70;;;;;;5053760;28;20053;-76
2023/09/29 01:00:37;;;;;;;6.60;4.40;;;15.20;69.80;;;;;;5053601;28;20048;-77
2023/09/29 01:03:10;;;;;;;8.32;4.80;;;15.10;69.70;;;;;;5054711;28;20120;-76
2023/09/29 01:05:38;;;;;;;11.02;4.25;;;15.10;69.90;;;;;;5037327;28;20040;-74
2023/09/29 01:08:08;;;;;;;8.25;4.68;;;15.00;70.00;;;;;;5054886;28;20032;-75
2023/09/29 01:10:35;;;;;;;7.57;4.18;;;15.00;70.10;;;;;;5053602;28;20049;-75
2023/09/29 01:13:02;;;;;;;5.93;4.28;;;15.00;70.00;;;;;;5053194;28;20021;-75
2023/09/29 01:15:29;;;;;;;5.30;4.07;;;15.00;69.90;;;;;;5052728;28;20218;-76
2023/09/29 01:17:55;;;;;;;8.07;4.25;;;15.00;69.70;;;;;;5053216;28;20036;-75
2023/09/29 01:20:30;;;;;;;7.80;4.00;;;15.10;69.80;;;;;;5054656;28;20025;-75
2023/09/29 01:22:57;;;;;;;6.07;4.38;;;15.10;69.60;;;;;;5037476;28;20021;-75
2023/09/29 01:25:23;;;;;;;8.02;4.65;;;15.10;69.70;;;;;;5053272;28;20112;-75
2023/09/29 01:27:49;;;;;;;6.53;4.18;;;15.10;69.60;;;;;;5036599;28;20381;-76
2023/09/29 01:30:18;;;;;;;7.43;4.30;;;15.10;69.20;;;;;;5053292;28;20391;-75
2023/09/29 01:32:49;;;;;;;5.90;3.83;;;15.10;69.00;;;;;;5053210;28;20021;-75
2023/09/29 01:35:21;;;;;;;4.97;3.90;;;15.20;68.90;;;;;;5053059;28;20041;-75
2023/09/29 01:37:49;;;;;;;6.20;4.40;;;15.10;69.20;;;;;;5054354;28;20029;-76
2023/09/29 01:40:15;;;;;;;8.38;4.22;;;15.00;69.20;;;;;;5053128;28;20070;-76
2023/09/29 01:42:44;;;;;;;6.72;4.72;;;15.00;69.40;;;;;;5052550;28;20469;-75
2023/09/29 01:45:14;;;;;;;7.60;4.28;;;15.00;69.50;;;;;;5036868;28;20460;-75
2023/09/29 01:47:42;;;;;;;6.13;4.50;;;14.90;69.50;;;;;;5052499;28;20069;-76
2023/09/29 01:50:10;;;;;;;6.80;4.40;;;14.90;69.40;;;;;;5052795;28;20036;-75
2023/09/29 01:52:36;;;;;;;6.68;4.53;;;15.00;69.10;;;;;;5052642;28;20116;-76
2023/09/29 01:55:05;;;;;;;7.38;4.60;;;14.90;68.50;;;;;;5052213;28;20115;-75
2023/09/29 01:57:30;;;;;;;6.57;4.35;;;15.00;68.60;;;;;;5052526;28;20025;-74
2023/09/29 01:59:56;;;;;;;5.85;4.18;;;15.00;68.50;;;;;;5052927;28;20408;-74
2023/09/29 02:02:22;;;;;;;6.82;4.30;;;15.00;68.20;;;;;;5053080;28;20021;-74
2023/09/29 02:04:47;;;;;;;7.32;4.70;;;15.10;68.40;;;;;;5053244;28;20021;-74
2023/09/29 02:07:13;;;;;;;5.90;4.40;;;15.10;68.30;;;;;;5053212;28;20031;-74
2023/09/29 02:09:39;;;;;;;7.07;4.57;;;15.10;68.20;;;;;;5054714;28;20025;-79
2023/09/29 02:12:06;;;;;;;7.00;4.40;;;15.10;68.10;;;;;;5052394;28;20052;-74
2023/09/29 02:14:31;;;;;;;6.35;4.22;;;15.10;67.90;;;;;;5069849;28;20031;-74
2023/09/29 02:16:58;;;;;;;4.65;4.15;;;15.20;68.00;;;;;;5068423;28;20032;-75
2023/09/29 02:19:24;;;;;;;6.75;3.95;;;15.10;68.20;;;;;;5068778;28;20025;-73
2023/09/29 02:21:49;;;;;;;5.75;4.53;;;15.00;68.10;;;;;;5068990;28;20488;-76
2023/09/29 02:24:15;;;;;;;11.02;5.15;;;15.00;68.40;;;;;;5068956;28;20032;-76
2023/09/29 02:26:41;;;;;;;6.60;4.40;;;14.90;68.80;;;;;;5068854;28;20025;-76
2023/09/29 02:29:08;;;;;;;6.75;4.35;;;14.90;69.10;;;;;;5068950;28;20018;-76
2023/09/29 02:31:36;;;;;;;9.65;5.15;;;14.80;70.00;;;;;;5051866;28;20116;-75
2023/09/29 02:34:04;;;;;;;6.38;4.38;;;14.80;69.20;;;;;;5068713;28;20025;-74
2023/09/29 02:36:31;;;;;;;6.80;4.45;;;14.80;69.40;;;;;;5065920;28;20477;-74
2023/09/29 02:38:56;;;;;;;8.40;5.00;;;14.70;70.40;;;;;;5068816;28;20043;-74
2023/09/29 02:41:22;;;;;;;6.60;4.75;;;14.80;69.20;;;;;;5068682;28;20480;-73
2023/09/29 02:43:48;;;;;;;6.88;4.60;;;14.80;69.40;;;;;;5068693;28;20076;-75
2023/09/29 02:46:16;;;;;;;8.30;4.35;;;14.80;69.30;;;;;;5068275;28;20028;-74
2023/09/29 02:48:42;;;;;;;7.03;4.82;;;14.90;69.20;;;;;;5035306;28;20112;-77
2023/09/29 02:51:18;;;;;;;7.88;5.20;;;14.90;69.20;;;;;;5035187;28;20470;-75
2023/09/29 02:53:44;;;;;;;7.25;5.03;;;14.90;69.30;;;;;;5035176;28;20029;-75
2023/09/29 02:56:11;;;;;;;9.48;5.10;;;14.90;69.20;;;;;;5035156;28;20033;-75
2023/09/29 02:58:38;;;;;;;6.10;4.60;;;14.80;69.30;;;;;;5035076;28;20045;-76
2023/09/29 03:01:12;;;;;;;6.00;4.20;;;14.80;69.50;;;;;;5035108;28;20086;-75
2023/09/29 03:03:40;;;;;;;7.53;4.90;;;14.80;69.40;;;;;;5035171;28;20044;-74
2023/09/29 03:06:06;;;;;;;7.57;4.25;;;14.80;69.40;;;;;;5035077;28;20036;-75
2023/09/29 03:08:33;;;;;;;7.63;5.35;;;14.80;69.50;;;;;;5034580;28;20441;-75
2023/09/29 03:10:59;;;;;;;6.88;5.43;;;14.80;69.50;;;;;;5034392;28;20033;-75
2023/09/29 03:13:25;;;;;;;10.88;6.00;;;14.80;69.60;;;;;;5018705;28;20033;-77
2023/09/29 03:15:51;;;;;;;9.40;5.85;;;14.80;69.70;;;;;;5018611;28;20094;-76
2023/09/29 03:18:17;;;;;;;8.27;5.70;;;14.80;69.80;;;;;;5034283;28;20025;-76
2023/09/29 03:20:42;;;;;;;7.63;5.60;;;14.80;69.80;;;;;;5034990;28;20535;-76
2023/09/29 03:23:08;;;;;;;6.65;4.95;;;14.80;70.10;;;;;;5034926;28;20021;-76
2023/09/29 03:25:37;;;;;;;7.38;5.20;;;14.80;70.00;;;;;;5034307;28;20029;-75
2023/09/29 03:28:04;;;;;;;6.63;5.07;;;14.80;70.10;;;;;;5034917;28;20032;-76
2023/09/29 03:30:33;;;;;;;8.60;5.40;;;14.80;70.10;;;;;;5026710;28;20374;-77
2023/09/29 03:33:04;;;;;;;11.02;6.03;;;14.80;70.10;;;;;;5034544;28;20049;-78
2023/09/29 03:35:29;;;;;;;8.70;5.22;;;14.80;70.10;;;;;;5034384;28;20033;-78
2023/09/29 03:37:55;;;;;;;8.68;6.00;;;14.90;70.00;;;;;;5034781;28;20021;-77
2023/09/29 03:40:20;;;;;;;7.50;5.60;;;14.80;69.90;;;;;;5034998;28;20100;-80
2023/09/29 03:42:46;;;;;;;8.27;5.60;;;14.80;70.30;;;;;;5052107;28;20021;-85
2023/09/29 03:45:14;;;;;;;8.00;5.53;;;14.80;70.50;;;;;;5035432;28;20087;-83
2023/09/29 03:47:43;;;;;;;12.63;5.50;;;14.80;70.50;;;;;;5055631;28;20053;-84
2023/09/29 03:50:12;;;;;;;6.97;5.63;;;14.80;70.40;;;;;;5039411;28;20035;-85
2023/09/29 03:52:39;;;;;;;8.35;5.03;;;14.90;70.30;;;;;;5039349;28;20560;-85
2023/09/29 03:55:33;;;;;;;7.32;5.60;;;14.90;70.20;;;;;;5057712;28;20041;-87
2023/09/29 03:58:20;;;;;;;6.88;5.40;;;14.90;70.30;;;;;;5056520;28;20056;-89
2023/09/29 04:00:46;;;;;;;6.07;5.03;;;15.00;71.00;;;;;;5039644;28;20078;-87
2023/09/29 04:03:12;;;;;;;6.93;5.28;;;15.00;70.20;;;;;;5039715;28;20469;-87
2023/09/29 04:05:37;;;;;;;7.90;4.70;;;15.10;70.10;;;;;;5038729;28;20035;-87
2023/09/29 04:08:05;;;;;;;5.72;4.32;;;15.10;70.10;;;;;;5039004;28;20354;-85
2023/09/29 04:10:30;;;;;;;7.32;5.03;;;15.10;70.00;;;;;;5039592;28;20032;-86
2023/09/29 04:12:56;;;;;;;6.07;4.95;;;15.10;69.90;;;;;;5039139;28;20089;-88
2023/09/29 04:15:23;;;;;;;6.88;5.05;;;15.20;69.70;;;;;;5038554;28;20033;-87
2023/09/29 04:17:49;;;;;;;7.05;4.88;;;15.20;69.50;;;;;;5038800;28;20021;-87
2023/09/29 04:20:15;;;;;;;6.28;4.78;;;15.30;69.50;;;;;;5039055;28;20033;-86
2023/09/29 04:22:41;;;;;;;6.35;4.13;;;15.30;69.30;;;;;;5038807;28;20025;-86
2023/09/29 04:25:10;;;;;;;9.95;6.28;;;15.30;69.40;;;;;;5038212;28;20394;-86
2023/09/29 04:27:36;;;;;;;7.57;5.07;;;15.30;69.50;;;;;;5038309;28;20029;-84
2023/09/29 04:30:05;;;;;;;6.63;4.57;;;15.30;69.50;;;;;;5021456;28;20021;-85
2023/09/29 04:32:32;;;;;;;5.88;4.88;;;15.30;69.40;;;;;;5042508;28;20033;-85
2023/09/29 04:34:59;;;;;;;6.53;5.47;;;15.40;69.50;;;;;;5022398;28;20044;-84
2023/09/29 04:37:26;;;;;;;6.30;4.78;;;15.40;69.40;;;;;;5057991;28;20052;-83
2023/09/29 04:39:52;;;;;;;6.22;4.85;;;15.30;69.20;;;;;;5038757;28;20021;-85
2023/09/29 04:42:18;;;;;;;8.07;5.28;;;15.40;69.30;;;;;;5054897;28;20108;-84
2023/09/29 04:44:44;;;;;;;8.25;4.78;;;15.50;69.30;;;;;;5038906;28;20035;-83
2023/09/29 04:47:10;;;;;;;7.68;5.57;;;15.50;69.20;;;;;;5044837;28;20037;-86
2023/09/29 04:49:36;;;;;;;8.25;5.47;;;15.50;69.10;;;;;;5055407;28;20059;-86
2023/09/29 04:52:05;;;;;;;8.20;5.35;;;15.60;69.10;;;;;;5055503;28;20116;-87
2023/09/29 04:54:31;;;;;;;9.75;5.75;;;15.60;68.90;;;;;;5072984;28;20036;-87
2023/09/29 04:56:58;;;;;;;10.65;6.20;;;15.50;69.30;;;;;;5072841;28;20025;-88
2023/09/29 04:59:25;;;;;;;7.70;5.85;;;15.60;69.20;;;;;;5071840;28;20465;-88
2023/09/29 05:01:51;;;;;;;9.27;6.35;;;15.60;69.10;;;;;;5074231;28;20032;-89
2023/09/29 05:04:18;;;;;;;12.55;5.72;;;15.50;69.00;;;;;;5073069;28;20025;-87
2023/09/29 05:06:45;;;;;;;10.68;6.05;;;15.50;69.30;;;;;;5072897;28;20492;-87
2023/09/29 05:09:11;;;;;;;10.60;5.88;;;15.50;69.30;;;;;;5071796;28;20082;-89
2023/09/29 05:11:37;;;;;;;9.48;5.82;;;15.60;69.30;;;;;;5072559;28;20033;-87
2023/09/29 05:14:02;;;;;;;13.05;7.13;;;15.60;69.40;;;;;;5071863;28;20474;-80
2023/09/29 05:16:28;;;;;;;20.08;15.32;;;15.60;69.20;;;;;;5071220;28;20091;-80
2023/09/29 05:18:54;;;;;;;9.75;6.43;;;15.50;69.50;;;;;;5060668;28;20059;-83
2023/09/29 05:21:22;;;;;;;12.05;6.18;;;15.40;69.60;;;;;;5078777;28;20025;-83
2023/09/29 05:23:48;;;;;;;8.90;6.13;;;15.50;69.60;;;;;;5037781;28;20465;-84
2023/09/29 05:26:13;;;;;;;10.15;6.38;;;15.50;69.60;;;;;;5058690;28;20032;-86
2023/09/29 05:28:39;;;;;;;11.70;6.13;;;15.50;69.50;;;;;;5051355;28;20022;-88
2023/09/29 05:31:05;;;;;;;10.23;6.22;;;15.50;69.50;;;;;;5051387;28;20391;-86
2023/09/29 05:33:31;;;;;;;9.15;6.57;;;15.50;69.50;;;;;;5051281;28;20049;-86
2023/09/29 05:35:58;;;;;;;11.32;6.50;;;15.60;69.40;;;;;;5035792;28;20038;-88
2023/09/29 05:38:24;;;;;;;12.85;6.80;;;15.60;69.30;;;;;;5034868;28;20025;-82
2023/09/29 05:40:51;;;;;;;15.85;6.50;;;15.70;72.20;;;;;;5049314;28;20029;-79
2023/09/29 05:43:17;;;;;;;9.85;6.18;;;15.80;71.50;;;;;;5033870;28;20064;-79
2023/09/29 05:45:44;;;;;;;9.70;5.95;;;16.00;70.20;;;;;;5034043;28;20542;-77
2023/09/29 05:48:10;;;;;;;20.83;8.45;;;16.10;69.10;;;;;;5050782;28;20049;-78
2023/09/29 05:50:35;;;;;;;24.13;9.00;;;16.10;69.80;;;;;;5054410;28;20013;-78
2023/09/29 05:53:02;;;;;;;13.48;7.00;;;16.30;68.60;;;;;;5053416;28;20025;-77
2023/09/29 05:55:28;;;;;;;11.63;6.47;;;16.40;66.80;;;;;;5052057;28;20067;-76
2023/09/29 05:57:53;;;;;;;11.95;6.70;;;16.50;66.30;;;;;;5053563;28;20053;-77
2023/09/29 06:00:19;;;;;;;11.00;5.82;;;16.50;65.70;;;;;;5055648;28;20079;-75
2023/09/29 06:02:46;;;;;;;9.52;5.63;;;16.50;65.50;;;;;;5053371;28;20060;-78
2023/09/29 06:05:12;;;;;;;11.68;6.07;;;16.60;66.30;;;;;;5053423;28;20496;-77
2023/09/29 06:07:38;;;;;;;11.45;5.85;;;16.70;65.40;;;;;;5035245;28;20029;-77
2023/09/29 06:10:06;;;;;;;8.25;5.82;;;16.80;64.70;;;;;;5059730;28;20025;-77
2023/09/29 06:12:31;;;;;;;8.52;5.32;;;16.80;64.80;;;;;;5053339;28;20021;-77
2023/09/29 06:14:57;;;;;;;8.93;5.63;;;16.90;65.20;;;;;;5053144;28;20024;-78
2023/09/29 06:17:23;;;;;;;9.82;6.07;;;17.10;64.40;;;;;;5053312;28;20021;-77
2023/09/29 06:19:50;;;;;;;8.77;5.13;;;17.20;64.10;;;;;;5053324;28;20024;-77
2023/09/29 06:22:15;;;;;;;9.93;5.60;;;17.20;63.70;;;;;;5053640;28;20131;-76
2023/09/29 06:24:43;;;;;;;10.73;6.15;;;17.30;63.30;;;;;;5052961;28;20025;-77
2023/09/29 06:27:10;;;;;;;8.15;5.40;;;17.40;62.50;;;;;;5053097;28;20096;-74
2023/09/29 06:29:35;;;;;;;9.85;5.40;;;17.50;61.80;;;;;;5053125;28;20516;-75
2023/09/29 06:32:01;;;;;;;10.73;5.45;;;17.50;62.10;;;;;;5053350;28;20025;-76
2023/09/29 06:34:27;;;;;;;9.93;5.20;;;17.50;61.80;;;;;;5037631;28;20078;-75
2023/09/29 06:36:52;;;;;;;6.45;5.00;;;17.70;61.50;;;;;;5052974;28;20156;-75
2023/09/29 06:39:18;;;;;;;8.07;5.03;;;17.80;61.70;;;;;;5052822;28;20025;-74
2023/09/29 06:41:44;;;;;;;7.47;5.40;;;17.90;61.90;;;;;;5052941;28;20021;-75
2023/09/29 06:44:09;;;;;;;11.13;5.07;;;18.00;61.20;;;;;;5052834;28;20036;-74
2023/09/29 06:46:35;;;;;;;8.38;4.70;;;18.10;61.60;;;;;;5052717;28;20559;-75
2023/09/29 06:49:03;;;;;;;11.70;5.55;;;18.20;61.50;;;;;;5034797;28;20032;-75
2023/09/29 06:51:29;;;;;;;9.18;5.50;;;18.20;61.50;;;;;;5052284;28;20031;-74
2023/09/29 06:53:54;;;;;;;8.63;5.60;;;18.20;61.50;;;;;;5052615;28;20112;-74
2023/09/29 06:56:20;;;;;;;8.93;5.18;;;18.30;61.40;;;;;;5052396;28;20060;-75
2023/09/29 06:58:46;;;;;;;7.18;4.90;;;18.30;61.00;;;;;;5034491;28;20025;-76
2023/09/29 07:01:12;;;;;;;10.63;4.80;;;18.40;60.80;;;;;;5051467;28;20021;-76
2023/09/29 07:03:38;;;;;;;11.07;5.63;;;18.40;60.60;;;;;;5034302;28;20025;-78
2023/09/29 07:06:04;;;;;;;8.20;5.20;;;18.50;60.90;;;;;;5034431;28;20025;-75
2023/09/29 07:08:30;;;;;;;9.52;5.30;;;18.50;61.20;;;;;;5052458;28;20029;-75
2023/09/29 07:10:56;;;;;;;7.70;5.07;;;18.50;61.30;;;;;;5052488;28;20028;-75
2023/09/29 07:13:21;;;;;;;8.52;4.60;;;18.60;61.70;;;;;;5052563;28;20032;-76
2023/09/29 07:15:47;;;;;;;6.80;4.70;;;18.60;61.20;;;;;;5052563;28;20393;-76
2023/09/29 07:18:13;;;;;;;6.72;4.38;;;18.80;61.10;;;;;;5052334;28;20466;-74
2023/09/29 07:20:39;;;;;;;6.57;4.80;;;18.90;61.10;;;;;;5052576;28;20025;-74
2023/09/29 07:23:08;;;;;;;6.15;4.25;;;19.00;61.20;;;;;;5037885;28;20028;-74
2023/09/29 07:25:35;;;;;;;7.03;4.20;;;19.00;59.90;;;;;;5056538;28;20093;-74
2023/09/29 07:28:01;;;;;;;7.82;4.38;;;19.10;59.70;;;;;;5056281;28;20519;-73
2023/09/29 07:30:26;;;;;;;8.18;4.47;;;19.30;61.30;;;;;;5056355;28;20029;-75
2023/09/29 07:32:52;;;;;;;9.57;5.18;;;19.40;60.90;;;;;;5056157;28;20021;-75
2023/09/29 07:35:18;;;;;;;7.68;4.75;;;19.40;61.20;;;;;;5038424;28;20029;-77
2023/09/29 07:37:44;;;;;;;8.52;4.53;;;19.60;61.60;;;;;;5056345;28;20025;-76
2023/09/29 07:40:10;;;;;;;5.50;4.18;;;19.60;61.20;;;;;;5056293;28;20070;-77
2023/09/29 07:42:35;;;;;;;9.35;4.70;;;19.70;60.50;;;;;;5056193;28;20035;-74
2023/09/29 07:45:01;;;;;;;6.30;3.97;;;19.90;60.10;;;;;;5056053;28;20025;-75
2023/09/29 07:47:27;;;;;;;7.93;4.32;;;20.00;59.50;;;;;;5056027;28;20400;-74
2023/09/29 07:49:52;;;;;;;6.68;4.78;;;20.10;59.50;;;;;;5057841;28;20040;-74
2023/09/29 07:52:18;;;;;;;13.15;5.93;;;20.20;59.40;;;;;;5055984;28;20050;-74
2023/09/29 07:54:44;;;;;;;10.10;5.45;;;20.30;59.00;;;;;;5055540;28;20043;-75
2023/09/29 07:57:09;;;;;;;11.20;7.63;;;20.40;58.80;;;;;;5055752;28;20124;-74
2023/09/29 07:59:35;;;;;;;8.13;6.63;;;20.50;59.30;;;;;;5055859;28;20021;-74
2023/09/29 08:02:01;;;;;;;9.25;5.55;;;20.60;59.30;;;;;;5056237;28;20104;-74
2023/09/29 08:04:26;;;;;;;7.35;4.35;;;20.70;59.00;;;;;;5056339;28;20442;-75
2023/09/29 08:06:52;;;;;;;8.57;4.43;;;20.70;59.60;;;;;;5055874;28;20385;-73
2023/09/29 08:09:18;;;;;;;5.38;3.80;;;20.70;58.90;;;;;;5055593;28;20020;-75
2023/09/29 08:11:43;;;;;;;5.75;3.05;;;20.80;58.40;;;;;;5055707;28;20428;-73
2023/09/29 08:14:09;;;;;;;4.95;3.35;;;20.90;58.10;;;;;;5055695;28;20420;-76
2023/09/29 08:16:36;;;;;;;4.90;3.20;;;21.00;58.20;;;;;;5055645;28;20083;-75
2023/09/29 08:19:03;;;;;;;5.47;3.15;;;21.10;58.10;;;;;;5055568;28;20021;-75
2023/09/29 08:21:30;;;;;;;3.70;3.30;;;21.20;58.20;;;;;;5055605;28;20021;-75
2023/09/29 08:23:55;;;;;;;4.43;3.20;;;21.40;58.20;;;;;;5055495;28;20501;-74
2023/09/29 08:26:21;;;;;;;5.15;3.20;;;21.70;58.10;;;;;;5055564;28;20025;-76
2023/09/29 08:28:46;;;;;;;4.40;2.92;;;22.10;57.00;;;;;;5054815;28;20727;-75
2023/09/29 08:31:16;;;;;;;3.95;3.38;;;22.40;55.20;;;;;;5037689;28;20017;-75
2023/09/29 08:33:42;;;;;;;3.80;3.22;;;22.70;53.10;;;;;;5053980;28;20029;-76
2023/09/29 08:36:08;;;;;;;4.43;3.65;;;23.00;50.30;;;;;;5037233;28;20458;-74
2023/09/29 08:38:34;;;;;;;6.88;3.00;;;23.10;48.10;;;;;;5054986;28;20033;-75
2023/09/29 08:41:05;;;;;;;2.85;2.55;;;23.10;47.30;;;;;;5054979;28;20025;-76
2023/09/29 08:43:33;;;;;;;5.10;3.38;;;23.10;46.20;;;;;;5055125;28;20032;-76
2023/09/29 08:45:59;;;;;;;4.55;3.22;;;23.10;46.70;;;;;;5055305;28;20052;-78
2023/09/29 08:48:32;;;;;;;6.07;3.13;;;23.10;46.90;;;;;;5054794;28;20546;-77
2023/09/29 08:51:01;;;;;;;4.85;4.35;;;23.00;45.80;;;;;;5037043;28;20583;-77
2023/09/29 08:53:28;;;;;;;6.45;3.60;;;23.10;45.90;;;;;;5037067;28;20025;-75
2023/09/29 08:55:55;;;;;;;3.03;2.22;;;23.10;44.50;;;;;;5054740;28;20037;-77
2023/09/29 08:58:23;;;;;;;3.92;2.30;;;23.20;43.20;;;;;;5055082;28;20373;-78
2023/09/29 09:00:49;;;;;;;3.28;2.45;;;23.10;43.80;;;;;;5054997;28;20029;-76
2023/09/29 09:03:14;;;;;;;3.25;2.53;;;23.40;43.10;;;;;;5054698;28;20104;-77
2023/09/29 09:05:40;;;;;;;2.25;2.05;;;23.70;44.20;;;;;;5054838;28;20021;-77
2023/09/29 09:08:06;;;;;;;4.10;2.15;;;24.00;42.70;;;;;;5058120;28;20023;-76
2023/09/29 09:10:34;;;;;;;3.95;2.28;;;24.30;39.20;;;;;;5054673;28;20033;-76
2023/09/29 09:13:05;;;;;;;3.78;2.80;;;24.30;39.20;;;;;;5053142;28;20382;-75
2023/09/29 09:15:31;;;;;;;5.10;4.07;;;24.20;40.40;;;;;;5054480;28;20116;-78
2023/09/29 09:17:57;;;;;;;2.67;2.35;;;24.00;40.20;;;;;;5054155;28;20063;-76
2023/09/29 09:20:23;;;;;;;5.40;2.60;;;23.90;41.10;;;;;;5054411;28;20561;-77
2023/09/29 09:22:57;;;;;;;3.30;2.50;;;23.70;41.70;;;;;;5036234;28;20027;-76
2023/09/29 09:25:41;;;;;;;4.13;2.20;;;23.60;42.20;;;;;;5054424;28;20020;-77
2023/09/29 09:28:16;;;;;;;3.25;2.63;;;23.50;42.60;;;;;;5054322;28;20013;-76
2023/09/29 09:30:42;;;;;;;3.90;2.25;;;23.40;43.20;;;;;;5053995;28;20024;-78
2023/09/29 09:33:16;;;;;;;6.72;2.53;;;23.40;43.00;;;;;;5054170;28;20389;-76
2023/09/29 09:35:42;;;;;;;4.72;2.78;;;23.40;43.20;;;;;;5054175;28;20037;-75
2023/09/29 09:38:08;;;;;;;3.63;2.50;;;23.60;43.60;;;;;;5053907;28;20029;-76
2023/09/29 09:40:34;;;;;;;5.18;2.25;;;23.80;43.70;;;;;;5054037;28;20029;-76
2023/09/29 09:43:03;;;;;;;5.13;2.67;;;24.10;42.20;;;;;;5053943;28;20074;-76
2023/09/29 09:45:39;;;;;;;3.10;2.10;;;24.40;41.50;;;;;;5053187;28;20021;-76
2023/09/29 09:48:10;;;;;;;5.63;4.38;;;24.60;40.60;;;;;;5053528;28;20056;-79
2023/09/29 09:50:36;;;;;;;4.35;2.40;;;24.80;40.00;;;;;;5053681;28;20035;-77
2023/09/29 09:53:08;;;;;;;5.68;2.55;;;25.00;40.30;;;;;;5053594;28;20486;-76
2023/09/29 09:55:44;;;;;;;3.95;2.47;;;25.10;40.40;;;;;;5053478;28;20044;-76
2023/09/29 09:58:16;;;;;;;3.78;2.53;;;25.30;39.50;;;;;;5053661;28;20072;-76
2023/09/29 10:00:45;;;;;;;5.75;3.10;;;25.60;39.30;;;;;;5053559;28;20035;-78
2023/09/29 10:03:14;;;;;;;5.20;2.60;;;25.80;39.00;;;;;;5052572;28;20021;-76
2023/09/29 10:05:41;;;;;;;3.85;2.35;;;25.80;38.40;;;;;;5047962;28;20021;-74
2023/09/29 10:08:10;;;;;;;6.32;2.60;;;25.70;38.90;;;;;;5050419;28;20018;-75
2023/09/29 10:10:40;;;;;;;4.95;2.53;;;25.50;38.80;;;;;;5051246;28;20444;-74
2023/09/29 10:13:11;;;;;;;3.22;2.33;;;25.30;39.40;;;;;;5046269;28;20048;-75
2023/09/29 10:15:38;;;;;;;4.38;2.58;;;25.20;39.80;;;;;;5051094;28;20076;-75
2023/09/29 10:18:18;;;;;;;7.78;3.25;;;25.40;40.70;;;;;;5053264;28;20028;-74
2023/09/29 10:20:48;;;;;;;3.20;2.22;;;25.70;40.40;;;;;;5045904;28;20052;-75
2023/09/29 10:23:14;;;;;;;4.63;2.63;;;26.00;40.20;;;;;;5052434;28;20023;-75
2023/09/29 10:25:55;;;;;;;3.58;2.47;;;26.30;39.90;;;;;;5050981;28;20025;-75
2023/09/29 10:28:33;;;;;;;6.38;3.03;;;26.50;37.80;;;;;;5050362;28;20018;-76
2023/09/29 10:31:27;;;;;;;3.80;2.67;;;26.60;37.00;;;;;;5046615;28;20028;-76
2023/09/29 10:33:55;;;;;;;3.97;2.72;;;26.70;37.30;;;;;;5046552;28;20087;-75
2023/09/29 10:36:30;;;;;;;3.17;2.50;;;26.70;36.50;;;;;;5048017;28;20025;-75
2023/09/29 10:38:57;;;;;;;4.28;2.90;;;26.80;36.50;;;;;;5050054;28;20370;-75
2023/09/29 10:41:23;;;;;;;5.90;2.90;;;26.70;36.00;;;;;;5042507;28;20417;-75
2023/09/29 10:43:50;;;;;;;5.03;2.70;;;26.60;37.30;;;;;;5050895;28;20019;-76
2023/09/29 10:46:17;;;;;;;4.43;2.50;;;26.60;37.00;;;;;;5050415;28;20319;-76
2023/09/29 10:48:51;;;;;;;5.35;3.30;;;26.70;37.50;;;;;;5048436;28;20021;-76
2023/09/29 10:51:28;;;;;;;6.18;3.35;;;26.40;38.40;;;;;;5049861;28;20017;-77
2023/09/29 10:53:55;;;;;;;7.38;3.83;;;26.40;38.40;;;;;;5047029;28;20021;-78
2023/09/29 10:56:22;;;;;;;5.80;3.38;;;26.50;38.20;;;;;;5047323;28;20029;-78
2023/09/29 10:58:52;;;;;;;7.03;3.17;;;26.70;38.60;;;;;;5032445;28;20089;-76
2023/09/29 11:01:32;;;;;;;4.40;3.20;;;26.60;38.50;;;;;;5047373;28;20029;-75
2023/09/29 11:03:59;;;;;;;8.50;3.33;;;26.60;39.50;;;;;;5048476;28;20036;-76
2023/09/29 11:06:26;;;;;;;8.02;4.80;;;26.60;39.90;;;;;;5050663;28;20028;-77
2023/09/29 11:08:53;;;;;;;5.57;3.25;;;26.70;39.10;;;;;;5050800;28;20013;-78
2023/09/29 11:11:18;;;;;;;7.03;3.17;;;26.80;38.30;;;;;;5048301;28;20020;-78
2023/09/29 11:13:54;;;;;;;4.88;3.15;;;26.80;39.00;;;;;;5048299;28;20025;-76
2023/09/29 11:16:24;;;;;;;4.78;2.80;;;26.90;39.20;;;;;;5050671;28;20025;-81
2023/09/29 11:18:50;;;;;;;4.82;3.05;;;26.80;38.70;;;;;;5050701;28;20013;-79
2023/09/29 11:21:19;;;;;;;5.57;3.10;;;26.90;39.00;;;;;;5033346;28;20095;-78
2023/09/29 11:23:47;;;;;;;7.75;3.47;;;27.00;38.80;;;;;;5051327;28;20436;-76
2023/09/29 11:26:13;;;;;;;6.53;3.50;;;27.30;38.20;;;;;;5050896;28;20025;-77
2023/09/29 11:28:44;;;;;;;7.65;2.85;;;27.30;38.70;;;;;;5050899;28;20052;-78
2023/09/29 11:31:12;;;;;;;4.95;3.08;;;27.10;38.80;;;;;;5033402;28;20055;-76
2023/09/29 11:33:45;;;;;;;7.00;3.20;;;27.30;38.30;;;;;;5051055;28;20028;-76
2023/09/29 11:36:18;;;;;;;6.45;3.38;;;27.20;38.90;;;;;;5051033;28;20032;-76
2023/09/29 11:38:44;;;;;;;3.75;2.70;;;27.10;39.50;;;;;;5047288;28;20489;-80
2023/09/29 11:41:11;;;;;;;6.63;3.03;;;27.10;39.40;;;;;;5055340;28;20029;-79
2023/09/29 11:43:39;;;;;;;6.10;2.63;;;27.30;39.00;;;;;;5030895;28;20036;-79
2023/09/29 11:46:05;;;;;;;8.52;3.67;;;27.50;38.30;;;;;;5045791;28;20083;-77
2023/09/29 11:48:31;;;;;;;5.80;3.40;;;27.50;37.80;;;;;;5051624;28;20033;-79
2023/09/29 11:50:56;;;;;;;3.97;3.00;;;27.40;38.80;;;;;;5051403;28;20559;-78
2023/09/29 11:53:22;;;;;;;7.13;3.13;;;27.60;39.10;;;;;;5051871;28;20057;-78
2023/09/29 11:55:48;;;;;;;4.43;2.95;;;27.80;38.10;;;;;;5051540;28;20158;-81
2023/09/29 11:58:13;;;;;;;6.72;3.53;;;28.20;37.40;;;;;;5051592;28;20514;-78
2023/09/29 12:00:41;;;;;;;6.10;3.53;;;28.30;37.10;;;;;;5051535;28;20017;-78
2023/09/29 12:03:08;;;;;;;5.80;2.97;;;28.40;37.30;;;;;;5051232;28;20056;-80
2023/09/29 12:05:37;;;;;;;8.90;3.10;;;28.70;37.00;;;;;;5051600;28;20034;-81
2023/09/29 12:08:03;;;;;;;4.40;2.92;;;29.10;36.20;;;;;;5052733;28;20100;-80
2023/09/29 12:10:30;;;;;;;7.50;3.00;;;28.90;34.80;;;;;;5055028;28;20116;-79
2023/09/29 12:12:57;;;;;;;4.82;2.83;;;28.70;35.90;;;;;;5055207;28;20100;-78
2023/09/29 12:15:23;;;;;;;6.68;2.90;;;28.50;36.90;;;;;;5052341;28;20047;-81
2023/09/29 12:17:48;;;;;;;8.80;3.42;;;28.50;36.90;;;;;;5027204;28;20018;-80
2023/09/29 12:20:14;;;;;;;7.30;3.13;;;28.40;37.40;;;;;;5048088;28;20028;-79
2023/09/29 12:22:45;;;;;;;8.57;3.13;;;28.40;37.20;;;;;;5037279;28;20028;-78
2023/09/29 12:25:13;;;;;;;4.72;3.10;;;28.80;36.40;;;;;;5051680;28;20024;-79
2023/09/29 12:27:40;;;;;;;7.78;3.30;;;28.90;35.50;;;;;;5054199;28;20074;-77
2023/09/29 12:30:09;;;;;;;6.05;3.20;;;28.70;36.40;;;;;;5054104;28;20021;-74
2023/09/29 12:32:41;;;;;;;5.47;2.83;;;28.70;35.60;;;;;;5054566;28;20017;-75
2023/09/29 12:35:14;;;;;;;3.47;2.78;;;28.50;36.00;;;;;;5048867;28;20029;-74
2023/09/29 12:37:44;;;;;;;8.32;2.97;;;28.80;35.80;;;;;;5053929;28;20438;-81
2023/09/29 12:40:11;;;;;;;5.07;3.10;;;29.10;35.10;;;;;;5053857;28;20025;-79
2023/09/29 12:42:46;;;;;;;6.97;3.00;;;28.80;34.70;;;;;;5053613;28;20029;-82
2023/09/29 12:45:14;;;;;;;5.35;2.78;;;28.90;34.90;;;;;;5031314;28;20022;-80
2023/09/29 12:47:40;;;;;;;5.32;2.75;;;29.10;36.70;;;;;;5048042;28;20053;-79